createdAt,value
2022-11-15T00:02:11.252Z,40.20
2022-11-15T00:05:00.642Z,38.73
2022-11-15T00:07:55.674Z,35.93
2022-11-15T00:10:57.401Z,37.97
2022-11-15T00:13:46.708Z,36.23
2022-11-15T00:16:36.138Z,40.17
2022-11-15T00:19:25.131Z,32.83
2022-11-15T00:22:14.344Z,33.83
2022-11-15T00:25:04.424Z,36.97
2022-11-15T00:27:58.004Z,33.77
2022-11-15T00:30:47.442Z,35.37
2022-11-15T00:33:38.483Z,29.60
2022-11-15T00:36:27.982Z,33.57
2022-11-15T00:39:17.538Z,29.67
2022-11-15T00:42:06.781Z,29.83
2022-11-15T00:44:58.060Z,31.57
2022-11-15T00:47:47.767Z,33.93
2022-11-15T00:50:36.980Z,33.90
2022-11-15T00:53:26.006Z,34.30
2022-11-15T00:56:14.564Z,29.00
2022-11-15T00:59:03.504Z,31.43
2022-11-15T01:01:54.220Z,31.03
2022-11-15T01:04:43.657Z,30.73
2022-11-15T01:07:33.213Z,31.07
2022-11-15T01:10:22.725Z,30.60
2022-11-15T01:13:11.822Z,32.87
2022-11-15T01:16:01.509Z,30.33
2022-11-15T01:18:53.119Z,34.23
2022-11-15T01:21:42.455Z,32.73
2022-11-15T01:24:31.813Z,32.20
2022-11-15T01:27:21.177Z,30.13
2022-11-15T01:30:11.557Z,32.13
2022-11-15T01:33:01.128Z,32.93
2022-11-15T01:35:51.783Z,33.43
2022-11-15T01:38:40.952Z,31.57
2022-11-15T01:41:32.504Z,33.00
2022-11-15T01:44:44.332Z,31.73
2022-11-15T01:47:37.515Z,29.40
2022-11-15T01:50:30.844Z,28.10
2022-11-15T01:53:24.491Z,30.67
2022-11-15T07:50:08.661Z,22.47
2022-11-15T07:52:59.848Z,27.97
2022-11-15T07:55:48.476Z,25.23
2022-11-15T07:58:37.274Z,26.93
2022-11-15T08:01:26.041Z,27.63
2022-11-15T08:04:14.941Z,25.33
2022-11-15T08:07:03.563Z,25.20
2022-11-15T08:09:55.873Z,28.13
2022-11-15T08:12:45.089Z,24.47
2022-11-15T08:15:35.276Z,26.30
2022-11-15T08:18:24.503Z,28.67
2022-11-15T08:21:18.499Z,26.13
2022-11-15T08:24:08.938Z,29.87
2022-11-15T08:26:59.726Z,25.37
2022-11-15T08:29:51.214Z,26.10
2022-11-15T08:32:40.260Z,27.03
2022-11-15T08:35:30.493Z,25.80
2022-11-15T08:38:19.997Z,28.63
2022-11-15T08:41:09.372Z,23.97
2022-11-15T08:44:00.265Z,27.03
2022-11-15T08:46:49.158Z,25.97
2022-11-15T08:49:38.805Z,31.10
2022-11-15T08:52:27.995Z,30.13
2022-11-15T08:55:17.775Z,32.37
2022-11-15T08:58:06.880Z,26.83
2022-11-15T09:00:57.516Z,26.83
2022-11-15T09:03:46.484Z,31.93
2022-11-15T09:06:36.317Z,32.67
2022-11-15T09:09:28.513Z,32.77
2022-11-15T09:12:17.976Z,33.43
2022-11-15T09:15:08.618Z,31.73
2022-11-15T09:18:00.816Z,31.37
2022-11-15T09:20:50.075Z,36.20
2022-11-15T09:23:39.562Z,30.10
2022-11-15T09:26:28.817Z,30.10
2022-11-15T09:29:17.540Z,36.27
2022-11-15T09:32:07.231Z,35.20
2022-11-15T09:34:57.776Z,37.87
2022-11-15T09:37:49.114Z,38.83
2022-11-15T09:40:41.248Z,38.10
2022-11-15T09:43:39.131Z,57.77
2022-11-15T09:46:40.380Z,52.33
2022-11-15T09:49:31.728Z,43.73
2022-11-15T09:52:24.103Z,36.97
2022-11-15T09:55:22.360Z,44.47
2022-11-15T09:58:24.319Z,50.73
2022-11-15T10:01:20.259Z,46.73
2022-11-15T10:04:11.888Z,41.47
2022-11-15T10:07:11.889Z,47.03
2022-11-15T10:10:11.706Z,36.20
2022-11-15T10:13:01.072Z,33.93
2022-11-15T10:15:51.582Z,36.63
2022-11-15T10:18:52.359Z,40.60
2022-11-15T10:21:51.107Z,43.83
2022-11-15T10:24:44.433Z,38.20
2022-11-15T10:27:35.397Z,41.87
2022-11-15T10:30:25.052Z,40.23
2022-11-15T10:33:26.811Z,37.80
2022-11-15T10:36:21.845Z,39.30
2022-11-15T10:39:14.968Z,35.83
2022-11-15T10:42:19.361Z,38.78
2022-11-15T10:45:26.315Z,39.10
2022-11-15T10:48:26.347Z,40.90
2022-11-15T10:51:27.021Z,37.73
2022-11-15T10:54:26.637Z,38.57
2022-11-15T10:57:18.257Z,37.70
2022-11-15T11:00:28.419Z,38.15
2022-11-15T11:03:36.751Z,41.55
2022-11-15T11:06:26.014Z,43.03
2022-11-15T11:09:30.819Z,46.43
2022-11-15T11:12:31.166Z,47.53
2022-11-15T11:15:21.385Z,46.03
2022-11-15T11:18:17.144Z,44.70
2022-11-15T11:21:14.211Z,57.97
2022-11-15T11:24:13.517Z,48.33
2022-11-15T11:27:15.285Z,44.13
2022-11-15T11:30:11.520Z,44.53
2022-11-15T11:33:16.240Z,44.53
2022-11-15T11:36:22.234Z,47.07
2022-11-15T11:39:25.960Z,37.67
2022-11-15T11:42:24.196Z,43.53
2022-11-15T11:45:21.315Z,44.42
2022-11-15T11:48:15.176Z,44.77
2022-11-15T11:51:09.784Z,46.63
2022-11-15T11:54:03.573Z,45.47
2022-11-15T11:56:55.022Z,44.60
2022-11-15T11:59:49.669Z,42.13
2022-11-15T12:02:43.997Z,45.50
2022-11-15T12:05:39.488Z,46.67
2022-11-15T12:08:38.786Z,43.55
2022-11-15T12:11:35.350Z,53.67
2022-11-15T12:14:32.470Z,45.80
2022-11-15T12:17:26.181Z,42.23
2022-11-15T12:20:20.658Z,49.58
2022-11-15T12:23:16.411Z,42.50
2022-11-15T12:26:10.618Z,39.70
2022-11-15T12:29:07.845Z,41.83
2022-11-15T12:32:01.070Z,41.83
2022-11-15T12:34:52.661Z,44.22
2022-11-15T12:37:52.807Z,45.97
2022-11-15T12:41:02.718Z,47.87
2022-11-15T12:43:53.843Z,42.53
2022-11-15T12:47:03.023Z,45.75
2022-11-15T12:49:53.092Z,45.33
2022-11-15T12:53:20.531Z,45.80
2022-11-15T12:56:24.431Z,45.17
2022-11-15T12:59:51.027Z,40.97
2022-11-15T13:02:42.957Z,39.97
2022-11-15T13:06:31.972Z,42.23
2022-11-15T13:09:56.789Z,40.17
2022-11-15T13:12:58.182Z,42.07
2022-11-15T13:16:00.180Z,41.10
2022-11-15T13:18:56.675Z,37.83
2022-11-15T13:22:08.954Z,42.38
2022-11-15T13:24:58.299Z,36.97
2022-11-15T13:27:48.663Z,37.57
2022-11-15T13:30:38.290Z,41.28
2022-11-15T13:33:36.213Z,40.30
2022-11-15T13:36:30.051Z,39.83
2022-11-15T13:39:29.185Z,34.67
2022-11-15T13:42:19.299Z,31.88
2022-11-15T13:45:15.102Z,36.28
2022-11-15T13:48:07.531Z,37.20
2022-11-15T13:50:59.520Z,31.67
2022-11-15T13:53:58.213Z,32.40
2022-11-15T13:56:50.409Z,35.38
2022-11-15T13:59:47.942Z,32.67
2022-11-15T14:02:38.611Z,33.30
2022-11-15T14:05:27.626Z,29.60
2022-11-15T14:08:26.417Z,29.37
2022-11-15T14:11:19.841Z,29.35
2022-11-15T14:14:16.702Z,33.80
2022-11-15T14:17:06.012Z,36.27
2022-11-15T14:19:54.979Z,33.30
2022-11-15T14:22:55.913Z,34.20
2022-11-15T14:25:55.940Z,34.00
2022-11-15T14:28:45.700Z,33.97
2022-11-15T14:31:34.487Z,33.67
2022-11-15T14:34:23.726Z,34.08
2022-11-15T14:37:22.927Z,32.70
2022-11-15T14:40:15.890Z,33.73
2022-11-15T14:43:06.296Z,31.97
2022-11-15T14:45:55.350Z,34.47
2022-11-15T14:48:45.069Z,32.90
2022-11-15T14:51:34.647Z,33.47
2022-11-15T14:54:23.840Z,37.07
2022-11-15T14:57:12.874Z,37.30
2022-11-15T15:00:04.440Z,36.13
2022-11-15T15:02:55.715Z,37.60
2022-11-15T15:05:46.807Z,34.43
2022-11-15T15:08:36.146Z,33.33
2022-11-15T15:11:27.375Z,30.67
2022-11-15T15:14:17.365Z,32.07
2022-11-15T15:17:08.740Z,27.03
2022-11-15T15:19:57.582Z,32.03
2022-11-15T15:22:47.331Z,30.87
2022-11-15T15:25:37.626Z,33.05
2022-11-15T15:28:31.434Z,37.80
2022-11-15T15:31:23.039Z,35.67
2022-11-15T15:34:16.939Z,32.43
2022-11-15T15:37:25.901Z,32.53
2022-11-15T15:40:19.000Z,33.57
2022-11-15T15:43:10.438Z,37.10
2022-11-15T15:45:59.962Z,37.17
2022-11-15T15:48:49.633Z,49.60
2022-11-15T15:51:40.522Z,45.70
2022-11-15T15:54:29.462Z,35.27
2022-11-15T15:57:18.879Z,40.10
2022-11-15T16:00:09.127Z,39.53
2022-11-15T16:02:58.131Z,37.57
2022-11-15T16:05:47.703Z,43.17
2022-11-15T16:09:00.252Z,39.13
2022-11-15T16:11:49.317Z,41.07
2022-11-15T16:14:38.624Z,54.67
2022-11-15T16:17:34.109Z,43.50
2022-11-15T16:20:33.508Z,37.63
2022-11-15T16:23:24.896Z,41.63
2022-11-15T16:26:22.721Z,47.67
2022-11-15T16:29:12.809Z,44.13
2022-11-15T16:32:02.022Z,35.03
2022-11-15T16:34:51.411Z,38.43
2022-11-15T16:37:41.602Z,36.20
2022-11-15T16:40:32.866Z,34.90
2022-11-15T16:43:23.356Z,32.75
2022-11-15T16:46:18.135Z,33.97
2022-11-15T16:49:10.202Z,35.93
2022-11-15T16:51:58.855Z,40.67
2022-11-15T16:54:48.447Z,36.53
2022-11-15T16:57:37.836Z,40.30
2022-11-15T17:00:28.551Z,33.77
2022-11-15T17:03:18.066Z,31.77
2022-11-15T17:06:07.935Z,33.60
2022-11-15T17:08:58.926Z,30.70
2022-11-15T17:11:48.986Z,34.45
2022-11-15T17:14:38.713Z,38.03
2022-11-15T17:17:29.773Z,32.47
2022-11-15T17:20:21.280Z,34.80
2022-11-15T17:23:14.902Z,34.63
2022-11-15T17:26:28.380Z,33.03
2022-11-15T17:29:14.906Z,31.30
2022-11-15T17:32:04.542Z,33.20
2022-11-15T17:34:55.249Z,33.20
2022-11-15T17:37:44.928Z,32.13
2022-11-15T17:40:34.508Z,31.37
2022-11-15T17:43:24.014Z,29.93
2022-11-15T17:46:15.238Z,30.00
2022-11-15T17:49:04.283Z,28.70
2022-11-15T17:51:55.890Z,27.47
2022-11-15T17:54:45.158Z,27.47
2022-11-15T17:57:34.444Z,30.33
2022-11-15T18:00:23.837Z,24.17
2022-11-15T18:03:13.132Z,25.53
2022-11-15T18:06:02.304Z,27.00
2022-11-15T18:08:53.943Z,25.57
2022-11-15T18:11:46.821Z,25.37
2022-11-15T18:14:36.399Z,29.90
2022-11-15T18:17:26.158Z,26.17
2022-11-15T18:20:15.679Z,27.87
2022-11-15T18:23:04.503Z,30.03
2022-11-15T18:25:55.937Z,27.30
2022-11-15T18:28:46.455Z,26.80
2022-11-15T18:31:35.534Z,26.93
2022-11-15T18:34:25.532Z,27.80
2022-11-15T18:37:14.966Z,31.10
2022-11-15T18:40:04.086Z,29.83
2022-11-15T18:42:56.749Z,28.93
2022-11-15T18:45:45.823Z,29.27
2022-11-15T18:48:37.293Z,31.80
2022-11-15T18:51:28.344Z,29.73
2022-11-15T18:54:19.178Z,27.83
2022-11-15T18:57:08.416Z,30.30
2022-11-15T18:59:59.665Z,31.80
2022-11-15T19:02:48.462Z,30.37
2022-11-15T19:05:37.643Z,32.03
2022-11-15T19:08:26.269Z,25.30
2022-11-15T19:11:16.872Z,27.37
2022-11-15T19:14:07.596Z,26.83
2022-11-15T19:16:59.156Z,27.10
2022-11-15T19:19:47.726Z,26.77
2022-11-15T19:22:36.298Z,23.20
2022-11-15T19:25:28.835Z,23.97
2022-11-15T19:28:18.538Z,21.40
2022-11-15T19:31:08.705Z,23.37
2022-11-15T19:34:00.999Z,25.95
2022-11-15T19:36:50.532Z,21.90
2022-11-15T19:39:41.171Z,23.55
2022-11-15T19:42:30.565Z,21.90
2022-11-15T19:45:19.571Z,20.17
2022-11-15T19:48:09.635Z,23.77
2022-11-15T19:51:02.543Z,26.02
2022-11-15T19:53:53.461Z,69.43
2022-11-15T19:56:42.731Z,43.73
2022-11-15T19:59:31.596Z,38.87
2022-11-15T20:02:20.448Z,37.00
2022-11-15T20:05:14.220Z,26.33
2022-11-15T20:08:09.915Z,21.07
2022-11-15T20:10:59.226Z,23.23
2022-11-15T20:13:49.507Z,27.50
2022-11-15T20:16:38.996Z,29.93
2022-11-15T20:19:28.439Z,34.90
2022-11-15T20:22:17.924Z,33.03
2022-11-15T20:25:09.511Z,36.03
2022-11-15T20:27:59.130Z,41.30
2022-11-15T20:30:49.416Z,28.47
2022-11-15T20:33:38.732Z,28.03
2022-11-15T20:36:27.819Z,24.20
2022-11-15T20:39:16.914Z,25.57
2022-11-15T20:42:08.843Z,35.42
2022-11-15T20:44:58.299Z,27.27
2022-11-15T20:47:47.452Z,24.57
2022-11-15T20:50:42.515Z,27.00
2022-11-15T20:53:32.540Z,33.30
2022-11-15T20:56:23.198Z,28.40
2022-11-15T20:59:14.024Z,30.63
2022-11-15T21:02:03.648Z,30.03
2022-11-15T21:04:53.168Z,31.27
2022-11-15T21:07:42.731Z,31.02
2022-11-15T21:10:48.730Z,27.43
2022-11-15T21:13:38.284Z,34.73
2022-11-15T21:16:29.414Z,31.77
2022-11-15T21:19:22.680Z,33.57
2022-11-15T21:22:15.761Z,28.97
2022-11-15T21:25:05.545Z,30.40
2022-11-15T21:27:54.919Z,32.10
2022-11-15T21:30:43.645Z,34.20
2022-11-15T21:33:36.232Z,35.50
2022-11-15T21:36:26.063Z,33.23
2022-11-15T21:39:15.363Z,39.33
2022-11-15T21:42:05.065Z,36.43
2022-11-15T21:44:54.216Z,37.97
2022-11-15T21:47:46.479Z,36.78
2022-11-15T21:50:37.051Z,38.83
2022-11-15T21:53:26.612Z,33.83
2022-11-15T21:56:16.011Z,39.60
2022-11-15T21:59:05.294Z,35.30
2022-11-15T22:02:11.536Z,37.30
2022-11-15T22:05:01.195Z,38.83
2022-11-15T22:07:52.270Z,41.03
2022-11-15T22:10:41.878Z,39.03
2022-11-15T22:13:30.963Z,42.13
2022-11-15T22:16:20.460Z,37.93
2022-11-15T22:19:10.236Z,39.27
2022-11-15T22:22:00.356Z,39.42
2022-11-15T22:24:51.440Z,36.30
2022-11-15T22:27:40.434Z,40.47
2022-11-15T22:30:29.712Z,38.73
2022-11-15T22:33:20.255Z,37.03
2022-11-15T22:36:10.342Z,39.87
2022-11-15T22:38:59.454Z,39.20
2022-11-15T22:41:50.417Z,42.20
2022-11-15T22:44:39.754Z,40.88
2022-11-15T22:47:30.408Z,39.40
2022-11-15T22:50:20.883Z,42.50
2022-11-15T22:53:11.425Z,40.50
2022-11-15T22:56:01.772Z,43.40
2022-11-15T22:58:52.287Z,41.87
2022-11-15T23:01:41.495Z,40.55
2022-11-15T23:04:31.079Z,40.83
2022-11-15T23:07:20.752Z,41.40
2022-11-15T23:10:28.660Z,44.92
2022-11-15T23:13:18.338Z,45.88
2022-11-15T23:16:33.471Z,43.87
2022-11-15T23:19:22.599Z,43.30
2022-11-15T23:22:28.987Z,43.90
2022-11-15T23:25:18.209Z,44.10
2022-11-15T23:28:07.638Z,43.53
2022-11-15T23:31:20.613Z,46.33
2022-11-15T23:34:11.697Z,48.70
2022-11-15T23:37:00.912Z,46.10
2022-11-15T23:39:49.780Z,47.27
2022-11-15T23:42:39.126Z,44.20
2022-11-15T23:45:28.035Z,44.30
2022-11-15T23:48:16.909Z,45.00
2022-11-15T23:51:09.040Z,46.57
2022-11-15T23:53:57.904Z,45.80
2022-11-15T23:56:47.004Z,46.40
